Time;durP1;ratioP1;P1;durP2;ratioP2;P2;SDS_P1;SDS_P2;PMS_P1;PMS_P2;Temp;Humidity;BMP_temperature;BMP_pressure;BME280_temperature;BME280_humidity;BME280_pressure;Samples;Min_cycle;Max_cycle;Signal;HPM_P1;HPM_P2
2023/04/04 00:01:15;;;;;;;;;;;4.30;99.90;;;;;;4992200;28;20427;-81
2023/04/04 00:03:41;;;;;;;;;;;4.30;99.90;;;;;;4991210;28;19968;-81
2023/04/04 00:06:07;;;;;;;;;;;4.30;99.90;;;;;;5008672;28;19926;-81
2023/04/04 00:08:32;;;;;;;;;;;4.30;99.90;;;;;;4991261;28;19937;-81
2023/04/04 00:11:01;;;;;;;;;;;4.20;99.90;;;;;;5009628;28;19921;-81
2023/04/04 00:13:26;;;;;;;;;;;4.10;99.90;;;;;;5001648;28;20002;-81
2023/04/04 00:15:52;;;;;;;;;;;4.10;99.90;;;;;;5011678;28;20373;-81
2023/04/04 00:18:18;;;;;;;;;;;4.10;99.90;;;;;;4994351;28;19921;-81
2023/04/04 00:20:44;;;;;;;;;;;3.90;99.90;;;;;;5010253;28;19921;-81
2023/04/04 00:23:10;;;;;;;;;;;3.90;99.90;;;;;;4997318;28;19921;-80
2023/04/04 00:25:35;;;;;;;;;;;3.80;99.90;;;;;;4991748;28;19925;-80
2023/04/04 00:28:02;;;;;;;;;;;3.80;99.90;;;;;;4991880;28;20328;-80
2023/04/04 00:30:28;;;;;;;;;;;3.80;99.90;;;;;;4991006;28;20033;-80
2023/04/04 00:32:54;;;;;;;;;;;3.80;99.90;;;;;;4991348;28;19922;-80
2023/04/04 00:35:20;;;;;;;;;;;3.80;99.90;;;;;;4994172;28;19921;-79
2023/04/04 00:37:45;;;;;;;;;;;3.70;99.90;;;;;;4998945;28;19928;-79
2023/04/04 00:40:11;;;;;;;;;;;3.60;99.90;;;;;;4991921;28;20515;-79
2023/04/04 00:42:37;;;;;;;;;;;3.60;99.90;;;;;;5008510;28;19921;-79
2023/04/04 00:45:04;;;;;;;;;;;3.60;99.90;;;;;;4991646;28;19978;-79
2023/04/04 00:47:30;;;;;;;;;;;3.60;99.90;;;;;;4990362;28;20403;-80
2023/04/04 00:49:56;;;;;;;;;;;3.50;99.90;;;;;;4990566;28;20007;-80
2023/04/04 00:52:22;;;;;;;;;;;3.60;99.90;;;;;;5008962;28;20020;-80
2023/04/04 00:54:48;;;;;;;;;;;3.50;99.90;;;;;;5010151;28;19925;-80
2023/04/04 00:57:13;;;;;;;;;;;3.40;99.90;;;;;;4993006;28;19989;-80
2023/04/04 00:59:39;;;;;;;;;;;3.40;99.90;;;;;;4974237;28;19921;-80
2023/04/04 01:02:05;;;;;;;;;;;3.40;99.90;;;;;;4974962;28;19975;-80
2023/04/04 01:04:30;;;;;;;;;;;3.30;99.90;;;;;;4990418;28;19932;-80
2023/04/04 01:06:56;;;;;;;;;;;3.30;99.90;;;;;;5004606;28;20473;-79
2023/04/04 01:09:22;;;;;;;;;;;3.30;99.90;;;;;;5009746;28;19992;-80
2023/04/04 01:11:47;;;;;;;;;;;3.30;99.90;;;;;;5005104;28;20520;-80
2023/04/04 01:14:13;;;;;;;;;;;3.20;99.90;;;;;;4988321;28;19921;-79
2023/04/04 01:16:39;;;;;;;;;;;3.20;99.90;;;;;;5005381;28;19929;-80
2023/04/04 01:19:07;;;;;;;;;;;3.20;99.90;;;;;;5023077;28;20386;-80
2023/04/04 01:21:33;;;;;;;;;;;3.10;99.90;;;;;;5006336;28;19984;-80
2023/04/04 01:24:00;;;;;;;;;;;3.10;99.90;;;;;;4991425;28;19968;-80
2023/04/04 01:26:26;;;;;;;;;;;3.30;99.90;;;;;;5007619;28;20314;-80
2023/04/04 01:28:52;;;;;;;;;;;3.10;99.90;;;;;;5075946;28;19928;-79
2023/04/04 01:31:20;;;;;;;;;;;3.10;99.90;;;;;;5075882;28;19968;-80
2023/04/04 01:33:52;;;;;;;;;;;3.10;99.90;;;;;;4998116;28;19921;-83
2023/04/04 01:36:22;;;;;;;;;;;3.00;99.90;;;;;;5009871;28;19921;-81
2023/04/04 01:39:06;;;;;;;;;;;3.00;99.90;;;;;;5009726;28;19928;-81
2023/04/04 01:41:33;;;;;;;;;;;2.90;99.90;;;;;;4994744;28;19921;-81
2023/04/04 01:43:59;;;;;;;;;;;3.00;99.90;;;;;;5023547;28;19969;-81
2023/04/04 01:46:26;;;;;;;;;;;2.90;99.90;;;;;;4990589;28;19980;-82
2023/04/04 01:48:51;;;;;;;;;;;3.00;99.90;;;;;;4989521;28;19926;-81
2023/04/04 01:51:17;;;;;;;;;;;2.90;99.90;;;;;;4990098;28;19974;-81
2023/04/04 01:53:42;;;;;;;;;;;3.00;99.90;;;;;;5007674;28;20004;-82
2023/04/04 01:56:08;;;;;;;;;;;3.00;99.90;;;;;;4990983;28;19921;-81
2023/04/04 01:58:34;;;;;;;;;;;3.20;99.90;;;;;;5001526;28;20319;-81
2023/04/04 02:01:00;;;;;;;;;;;2.90;99.90;;;;;;5001965;28;19925;-82
2023/04/04 02:03:26;;;;;;;;;;;2.90;99.90;;;;;;4989823;28;19971;-80
2023/04/04 02:05:52;;;;;;;;;;;2.90;99.90;;;;;;4989180;28;20012;-80
2023/04/04 02:08:18;;;;;;;;;;;2.90;99.90;;;;;;5023523;28;20020;-80
2023/04/04 02:10:44;;;;;;;;;;;2.90;99.90;;;;;;5004395;28;20425;-80
2023/04/04 02:13:09;;;;;;;;;;;2.80;99.90;;;;;;5010116;28;19925;-80
2023/04/04 02:15:35;;;;;;;;;;;2.80;99.90;;;;;;5009402;28;19921;-81
2023/04/04 02:18:01;;;;;;;;;;;2.80;99.90;;;;;;5007906;28;19932;-81
2023/04/04 02:20:26;;;;;;;;;;;2.70;99.90;;;;;;4992302;28;20012;-81
2023/04/04 02:22:53;;;;;;;;;;;2.70;99.90;;;;;;5000178;28;19921;-80
2023/04/04 02:25:19;;;;;;;;;;;2.60;99.90;;;;;;5023330;28;20380;-80
2023/04/04 02:27:44;;;;;;;;;;;2.60;99.90;;;;;;5022715;28;19922;-81
2023/04/04 02:30:11;;;;;;;;;;;2.60;99.90;;;;;;4990493;28;19926;-81
2023/04/04 02:32:37;;;;;;;;;;;2.60;99.90;;;;;;4989429;28;19936;-80
2023/04/04 02:35:03;;;;;;;;;;;2.50;99.90;;;;;;4993014;28;19929;-81
2023/04/04 02:37:29;;;;;;;;;;;2.50;99.90;;;;;;4993540;28;19926;-80
2023/04/04 02:39:54;;;;;;;;;;;2.40;99.90;;;;;;4995203;28;19929;-80
2023/04/04 02:42:20;;;;;;;;;;;2.50;99.90;;;;;;4995358;28;19925;-81
2023/04/04 02:44:45;;;;;;;;;;;2.50;99.90;;;;;;5030090;28;19925;-80
2023/04/04 02:47:11;;;;;;;;;;;2.60;99.90;;;;;;4986106;28;20301;-80
2023/04/04 02:49:37;;;;;;;;;;;2.40;99.90;;;;;;4992446;28;19921;-80
2023/04/04 02:52:02;;;;;;;;;;;2.40;99.90;;;;;;5010146;28;19925;-81
2023/04/04 02:54:28;;;;;;;;;;;2.60;99.90;;;;;;5026458;28;19921;-81
2023/04/04 02:56:54;;;;;;;;;;;2.50;99.90;;;;;;4993036;28;19961;-80
2023/04/04 02:59:20;;;;;;;;;;;2.30;99.90;;;;;;4993314;28;19982;-80
2023/04/04 03:01:45;;;;;;;;;;;2.30;99.90;;;;;;4992059;28;19990;-80
2023/04/04 03:04:11;;;;;;;;;;;2.30;99.90;;;;;;4976817;28;19921;-80
2023/04/04 03:06:39;;;;;;;;;;;2.30;99.90;;;;;;4994309;28;20277;-80
2023/04/04 03:09:05;;;;;;;;;;;2.40;99.90;;;;;;5029309;28;20258;-80
2023/04/04 03:11:30;;;;;;;;;;;2.30;99.90;;;;;;4993438;28;19974;-80
2023/04/04 03:13:56;;;;;;;;;;;2.30;99.90;;;;;;4992809;28;19917;-80
2023/04/04 03:16:22;;;;;;;;;;;2.30;99.90;;;;;;4992695;28;19931;-81
2023/04/04 03:18:48;;;;;;;;;;;2.20;99.90;;;;;;4991390;28;19928;-81
2023/04/04 03:21:13;;;;;;;;;;;2.20;99.90;;;;;;4994242;28;19925;-80
2023/04/04 03:23:39;;;;;;;;;;;2.40;99.90;;;;;;5025842;28;19944;-80
2023/04/04 03:26:05;;;;;;;;;;;2.20;99.90;;;;;;5025955;28;20012;-80
2023/04/04 03:28:30;;;;;;;;;;;2.10;99.90;;;;;;5004962;28;19932;-80
2023/04/04 03:30:56;;;;;;;;;;;2.20;99.90;;;;;;5011760;28;20007;-80
2023/04/04 03:33:22;;;;;;;;;;;2.10;99.90;;;;;;5005852;28;19921;-80
2023/04/04 03:35:47;;;;;;;;;;;2.00;99.90;;;;;;4991145;28;20659;-80
2023/04/04 03:38:13;;;;;;;;;;;2.00;99.90;;;;;;4992672;28;19921;-80
2023/04/04 03:40:40;;;;;;;;;;;1.90;99.90;;;;;;4992477;28;19925;-80
2023/04/04 03:43:06;;;;;;;;;;;1.90;99.90;;;;;;5025194;28;19933;-79
2023/04/04 03:45:33;;;;;;;;;;;1.90;99.90;;;;;;4992229;28;19922;-80
2023/04/04 03:47:58;;;;;;;;;;;1.90;99.90;;;;;;5008328;28;20507;-80
2023/04/04 03:50:24;;;;;;;;;;;1.90;99.90;;;;;;4991697;28;19932;-80
2023/04/04 03:52:50;;;;;;;;;;;1.80;99.90;;;;;;4987819;28;19925;-80
2023/04/04 03:55:15;;;;;;;;;;;1.80;99.90;;;;;;5012225;28;20044;-80
2023/04/04 03:57:41;;;;;;;;;;;1.80;99.90;;;;;;5006869;28;19922;-80
2023/04/04 04:00:07;;;;;;;;;;;1.90;99.90;;;;;;4981455;28;19922;-80
2023/04/04 04:02:33;;;;;;;;;;;1.80;99.90;;;;;;4968790;28;19979;-80
2023/04/04 04:04:58;;;;;;;;;;;1.80;99.90;;;;;;4982652;28;19953;-80
2023/04/04 04:07:24;;;;;;;;;;;1.80;99.90;;;;;;4958891;28;19922;-80
2023/04/04 04:09:50;;;;;;;;;;;2.20;99.90;;;;;;4988471;28;19961;-80
2023/04/04 04:12:15;;;;;;;;;;;1.60;99.90;;;;;;4972849;28;19977;-80
2023/04/04 04:14:41;;;;;;;;;;;1.50;99.90;;;;;;4988701;28;20387;-80
2023/04/04 04:17:06;;;;;;;;;;;1.50;99.90;;;;;;4988284;28;19926;-80
2023/04/04 04:19:32;;;;;;;;;;;1.60;99.90;;;;;;4973736;28;20431;-80
2023/04/04 04:21:58;;;;;;;;;;;1.30;99.90;;;;;;4968248;28;20275;-80
2023/04/04 04:24:23;;;;;;;;;;;1.30;99.90;;;;;;4970613;28;19922;-80
2023/04/04 04:26:49;;;;;;;;;;;1.30;99.90;;;;;;4968824;28;20013;-80
2023/04/04 04:29:15;;;;;;;;;;;1.40;99.90;;;;;;4969319;28;19922;-80
2023/04/04 04:31:41;;;;;;;;;;;1.20;99.90;;;;;;4958273;28;19971;-81
2023/04/04 04:34:09;;;;;;;;;;;1.30;99.90;;;;;;4989092;28;19926;-80
2023/04/04 04:36:35;;;;;;;;;;;1.20;99.90;;;;;;4986603;28;19932;-80
2023/04/04 04:39:00;;;;;;;;;;;1.20;99.90;;;;;;4968355;28;19926;-80
2023/04/04 04:41:28;;;;;;;;;;;1.10;99.90;;;;;;4969030;28;19933;-80
2023/04/04 04:43:54;;;;;;;;;;;1.00;99.90;;;;;;4968799;28;19930;-80
2023/04/04 04:46:20;;;;;;;;;;;0.90;99.90;;;;;;4969044;28;19922;-80
2023/04/04 04:48:45;;;;;;;;;;;0.90;99.90;;;;;;4951183;28;19926;-80
2023/04/04 04:51:12;;;;;;;;;;;1.10;99.90;;;;;;4968198;28;19929;-80
2023/04/04 04:53:38;;;;;;;;;;;0.80;99.90;;;;;;4968900;28;20323;-80
2023/04/04 04:56:04;;;;;;;;;;;0.80;99.90;;;;;;4967703;28;20078;-80
2023/04/04 04:58:29;;;;;;;;;;;0.70;99.90;;;;;;4969129;28;20361;-80
2023/04/04 05:00:58;;;;;;;;;;;0.70;99.90;;;;;;5028090;28;20269;-80
2023/04/04 05:03:24;;;;;;;;;;;0.60;99.90;;;;;;4994784;28;19932;-80
2023/04/04 05:05:50;;;;;;;;;;;0.60;99.90;;;;;;5006981;28;19932;-80
2023/04/04 05:08:15;;;;;;;;;;;0.70;99.90;;;;;;4991228;28;19925;-80
2023/04/04 05:10:41;;;;;;;;;;;0.60;99.90;;;;;;4991308;28;19932;-80
2023/04/04 05:13:08;;;;;;;;;;;0.60;99.90;;;;;;4990968;28;20028;-80
2023/04/04 05:15:34;;;;;;;;;;;0.60;99.90;;;;;;5008376;28;19967;-80
2023/04/04 05:18:00;;;;;;;;;;;0.90;99.90;;;;;;4989677;28;19922;-80
2023/04/04 05:20:26;;;;;;;;;;;0.70;99.90;;;;;;4991859;28;19968;-80
2023/04/04 05:22:52;;;;;;;;;;;0.80;99.90;;;;;;5002912;28;19925;-80
2023/04/04 05:25:17;;;;;;;;;;;0.80;99.90;;;;;;5010933;28;19970;-80
2023/04/04 05:27:46;;;;;;;;;;;0.70;99.90;;;;;;5027807;28;20049;-80
2023/04/04 05:30:11;;;;;;;;;;;0.70;99.90;;;;;;4990523;28;19922;-80
2023/04/04 05:32:37;;;;;;;;;;;0.70;99.90;;;;;;4989758;28;19928;-80
2023/04/04 05:35:03;;;;;;;;;;;0.80;99.90;;;;;;4989814;28;20023;-80
2023/04/04 05:37:28;;;;;;;;;;;0.70;99.90;;;;;;4990880;28;20322;-80
2023/04/04 05:39:54;;;;;;;;;;;0.70;99.90;;;;;;4997549;28;19921;-80
2023/04/04 05:42:20;;;;;;;;;;;0.70;99.90;;;;;;4991160;28;19928;-80
2023/04/04 05:44:46;;;;;;;;;;;0.70;99.90;;;;;;5000641;28;19973;-80
2023/04/04 05:47:11;;;;;;;;;;;0.70;99.90;;;;;;5009260;28;19921;-80
2023/04/04 05:49:37;;;;;;;;;;;0.70;99.90;;;;;;5010124;28;19925;-80
2023/04/04 05:52:02;;;;;;;;;;;0.70;99.90;;;;;;5009349;28;19977;-80
2023/04/04 05:54:28;;;;;;;;;;;0.90;99.90;;;;;;5008342;28;19922;-80
2023/04/04 05:56:54;;;;;;;;;;;0.90;99.90;;;;;;4990399;28;19950;-80
2023/04/04 05:59:20;;;;;;;;;;;0.90;99.90;;;;;;4973891;28;19971;-80
2023/04/04 06:01:46;;;;;;;;;;;0.90;99.90;;;;;;5007529;28;19986;-80
2023/04/04 06:04:12;;;;;;;;;;;1.10;99.90;;;;;;4989975;28;20052;-80
2023/04/04 06:06:37;;;;;;;;;;;1.00;99.90;;;;;;4977955;28;20385;-80
2023/04/04 06:09:03;;;;;;;;;;;1.10;99.90;;;;;;5008708;28;19925;-80
2023/04/04 06:11:29;;;;;;;;;;;1.20;99.90;;;;;;4994146;28;19921;-80
2023/04/04 06:13:54;;;;;;;;;;;1.30;99.90;;;;;;5005222;28;19969;-80
2023/04/04 06:16:20;;;;;;;;;;;1.30;99.90;;;;;;5013403;28;20362;-80
2023/04/04 06:18:46;;;;;;;;;;;1.40;99.90;;;;;;5012393;28;19931;-80
2023/04/04 06:21:12;;;;;;;;;;;1.40;99.90;;;;;;5045078;28;19925;-80
2023/04/04 06:23:38;;;;;;;;;;;1.70;99.90;;;;;;5009295;28;19925;-80
2023/04/04 06:26:04;;;;;;;;;;;1.60;99.90;;;;;;5012796;28;20066;-81
2023/04/04 06:28:29;;;;;;;;;;;1.80;99.90;;;;;;5009153;28;20019;-80
2023/04/04 06:30:55;;;;;;;;;;;1.80;99.90;;;;;;5012772;28;19957;-80
2023/04/04 06:33:20;;;;;;;;;;;1.90;99.90;;;;;;5012606;28;19928;-80
2023/04/04 06:35:46;;;;;;;;;;;2.10;99.90;;;;;;5012365;28;19921;-80
2023/04/04 06:38:12;;;;;;;;;;;2.30;99.90;;;;;;5012507;28;19921;-80
2023/04/04 06:40:37;;;;;;;;;;;2.30;99.90;;;;;;5045861;28;19922;-80
2023/04/04 06:43:03;;;;;;;;;;;2.40;99.90;;;;;;4992568;28;19943;-67
2023/04/04 06:45:32;;;;;;;;;;;2.60;99.90;;;;;;5019913;28;20382;-67
2023/04/04 06:47:58;;;;;;;;;;;2.60;99.90;;;;;;5009515;28;19925;-70
2023/04/04 06:50:24;;;;;;;;;;;2.80;99.90;;;;;;5025148;28;19948;-67
2023/04/04 06:52:49;;;;;;;;;;;2.90;99.90;;;;;;5030380;28;19925;-66
2023/04/04 06:55:16;;;;;;;;;;;3.10;99.90;;;;;;5030073;28;19925;-80
2023/04/04 06:57:42;;;;;;;;;;;3.20;99.90;;;;;;5025788;28;19925;-79
2023/04/04 07:00:09;;;;;;;;;;;3.30;99.90;;;;;;4992278;28;19978;-76
2023/04/04 07:02:35;;;;;;;;;;;3.30;99.90;;;;;;5009267;28;19932;-81
2023/04/04 07:05:02;;;;;;;;;;;3.40;99.90;;;;;;5009255;28;19922;-79
2023/04/04 07:07:28;;;;;;;;;;;3.40;99.90;;;;;;5002513;28;20263;-79
2023/04/04 07:09:54;;;;;;;;;;;3.60;99.90;;;;;;4998347;28;19974;-78
2023/04/04 07:12:20;;;;;;;;;;;3.50;99.90;;;;;;5009903;28;19929;-78
2023/04/04 07:14:46;;;;;;;;;;;3.60;99.90;;;;;;5010472;28;20020;-77
2023/04/04 07:17:11;;;;;;;;;;;3.60;99.90;;;;;;5009041;28;20285;-77
2023/04/04 07:19:37;;;;;;;;;;;3.70;99.90;;;;;;4975434;28;19922;-77
2023/04/04 07:22:03;;;;;;;;;;;3.70;99.90;;;;;;5024497;28;19924;-77
2023/04/04 07:24:28;;;;;;;;;;;3.80;99.90;;;;;;5030085;28;19927;-77
2023/04/04 07:26:54;;;;;;;;;;;3.80;99.90;;;;;;5027593;28;19925;-77
2023/04/04 07:29:20;;;;;;;;;;;3.90;99.90;;;;;;5009454;28;20694;-78
2023/04/04 07:31:46;;;;;;;;;;;3.90;99.90;;;;;;5009760;28;20053;-78
2023/04/04 07:34:12;;;;;;;;;;;4.00;99.90;;;;;;5009301;28;20004;-78
2023/04/04 07:36:37;;;;;;;;;;;4.00;99.90;;;;;;5009133;28;19976;-78
2023/04/04 07:39:03;;;;;;;;;;;4.00;99.90;;;;;;5011613;28;19937;-77
2023/04/04 07:41:29;;;;;;;;;;;4.10;99.90;;;;;;5029761;28;20381;-78
2023/04/04 07:43:55;;;;;;;;;;;4.10;99.90;;;;;;5030054;28;19925;-78
2023/04/04 07:46:21;;;;;;;;;;;4.20;99.90;;;;;;5010293;28;19917;-78
2023/04/04 07:48:46;;;;;;;;;;;4.20;99.90;;;;;;5008822;28;19925;-78
2023/04/04 07:51:12;;;;;;;;;;;4.20;99.90;;;;;;5008342;28;19939;-78
2023/04/04 07:53:38;;;;;;;;;;;4.30;99.90;;;;;;5028553;28;19921;-78
2023/04/04 07:56:07;;;;;;;;;;;4.40;99.90;;;;;;5028810;28;20289;-76
2023/04/04 07:58:33;;;;;;;;;;;4.40;99.90;;;;;;5017601;28;20426;-78
2023/04/04 08:00:59;;;;;;;;;;;4.50;99.90;;;;;;5009732;28;19929;-80
2023/04/04 08:03:25;;;;;;;;;;;4.50;99.80;;;;;;5008405;28;19929;-79
2023/04/04 08:05:51;;;;;;;;;;;4.60;99.60;;;;;;5008312;28;20245;-77
2023/04/04 08:08:16;;;;;;;;;;;4.60;99.80;;;;;;5008864;28;19965;-79
2023/04/04 08:10:45;;;;;;;;;;;4.70;99.60;;;;;;5012878;28;20213;-79
2023/04/04 08:13:11;;;;;;;;;;;4.70;99.20;;;;;;5075594;28;20298;-81
2023/04/04 08:15:37;;;;;;;;;;;4.80;99.00;;;;;;4975543;28;19921;-77
2023/04/04 08:18:02;;;;;;;;;;;4.80;99.30;;;;;;5023603;28;19932;-77
2023/04/04 08:20:28;;;;;;;;;;;4.80;99.90;;;;;;5022698;28;19928;-77
2023/04/04 08:22:53;;;;;;;;;;;4.90;99.60;;;;;;5009116;28;19932;-77
2023/04/04 08:25:19;;;;;;;;;;;5.00;99.80;;;;;;5036314;28;19956;-80
2023/04/04 08:27:45;;;;;;;;;;;5.20;99.00;;;;;;5024512;28;19929;-82
2023/04/04 08:30:14;;;;;;;;;;;5.20;98.90;;;;;;4973245;28;20377;-81
2023/04/04 08:32:41;;;;;;;;;;;5.30;99.40;;;;;;4990799;28;19928;-80
2023/04/04 08:35:07;;;;;;;;;;;5.40;98.40;;;;;;4989761;28;19925;-79
2023/04/04 08:37:34;;;;;;;;;;;5.50;98.30;;;;;;5007474;28;19960;-78
2023/04/04 08:40:00;;;;;;;;;;;5.50;98.40;;;;;;4990908;28;19971;-78
2023/04/04 08:42:27;;;;;;;;;;;5.50;98.10;;;;;;5024212;28;20161;-79
2023/04/04 08:44:54;;;;;;;;;;;5.60;98.30;;;;;;5043013;28;19921;-78
2023/04/04 08:47:20;;;;;;;;;;;5.60;98.20;;;;;;5035816;28;19976;-84
2023/04/04 08:49:47;;;;;;;;;;;5.70;98.60;;;;;;4989617;28;19932;-74
2023/04/04 08:52:13;;;;;;;;;;;5.80;97.70;;;;;;5005319;28;19971;-75
2023/04/04 08:54:39;;;;;;;;;;;6.10;97.30;;;;;;4997006;28;19985;-76
2023/04/04 08:57:05;;;;;;;;;;;6.10;97.30;;;;;;5011793;28;20382;-75
2023/04/04 08:59:32;;;;;;;;;;;6.20;97.30;;;;;;5001593;28;19926;-74
2023/04/04 09:02:04;;;;;;;;;;;6.30;96.10;;;;;;5007997;28;19978;-78
2023/04/04 09:04:30;;;;;;;;;;;6.30;95.40;;;;;;5007644;28;20358;-73
2023/04/04 09:06:57;;;;;;;;;;;6.50;95.60;;;;;;5007779;28;19967;-68
2023/04/04 09:09:23;;;;;;;;;;;6.50;96.00;;;;;;5007926;28;20420;-75
2023/04/04 09:11:50;;;;;;;;;;;6.50;95.20;;;;;;4991395;28;19925;-73
2023/04/04 09:14:16;;;;;;;;;;;6.60;93.90;;;;;;5008619;28;20385;-72
2023/04/04 09:16:41;;;;;;;;;;;6.60;91.90;;;;;;5011379;28;19961;-73
2023/04/04 09:19:07;;;;;;;;;;;6.70;92.50;;;;;;4974398;28;20402;-73
2023/04/04 09:21:33;;;;;;;;;;;6.70;92.50;;;;;;5006742;28;19925;-74
2023/04/04 09:24:02;;;;;;;;;;;6.80;92.40;;;;;;5023968;28;19968;-73
2023/04/04 09:26:45;;;;;;;;;;;6.80;91.60;;;;;;5007646;28;19933;-72
2023/04/04 09:29:10;;;;;;;;;;;6.90;90.90;;;;;;5026192;28;19943;-72
2023/04/04 09:31:36;;;;;;;;;;;6.90;91.60;;;;;;5007233;28;19926;-72
2023/04/04 09:34:02;;;;;;;;;;;6.90;91.30;;;;;;5008028;28;19926;-72
2023/04/04 09:36:27;;;;;;;;;;;7.10;91.40;;;;;;4989426;28;19970;-73
2023/04/04 09:38:53;;;;;;;;;;;7.20;90.90;;;;;;5008145;28;19947;-72
2023/04/04 09:41:20;;;;;;;;;;;7.20;90.10;;;;;;5007947;28;19965;-72
2023/04/04 09:43:46;;;;;;;;;;;7.30;90.60;;;;;;5011606;28;19978;-72
2023/04/04 09:46:11;;;;;;;;;;;7.40;90.90;;;;;;4993842;28;20374;-72
2023/04/04 09:48:37;;;;;;;;;;;7.40;90.60;;;;;;5010188;28;19950;-72
2023/04/04 09:51:04;;;;;;;;;;;7.40;90.10;;;;;;5010391;28;19925;-70
2023/04/04 09:53:32;;;;;;;;;;;7.30;91.30;;;;;;5010856;28;20409;-73
2023/04/04 09:55:59;;;;;;;;;;;7.40;91.20;;;;;;5011494;28;19921;-73
2023/04/04 09:58:26;;;;;;;;;;;7.40;89.60;;;;;;5010597;28;20015;-73
2023/04/04 10:00:59;;;;;;;;;;;7.50;90.50;;;;;;5026188;28;19929;-73
2023/04/04 10:03:26;;;;;;;;;;;7.50;91.40;;;;;;5010377;28;20370;-73
2023/04/04 10:05:58;;;;;;;;;;;7.60;91.20;;;;;;5010541;28;19942;-74
2023/04/04 10:08:26;;;;;;;;;;;7.60;88.80;;;;;;5004186;28;19921;-73
2023/04/04 10:10:55;;;;;;;;;;;7.60;90.90;;;;;;5029484;28;20406;-72
2023/04/04 10:13:24;;;;;;;;;;;7.60;90.20;;;;;;5012195;28;19932;-73
2023/04/04 10:15:54;;;;;;;;;;;7.70;90.60;;;;;;5030984;28;20274;-73
2023/04/04 10:18:22;;;;;;;;;;;7.80;89.00;;;;;;5021713;28;19928;-73
2023/04/04 10:20:48;;;;;;;;;;;7.80;87.80;;;;;;5010525;28;19930;-72
2023/04/04 10:23:15;;;;;;;;;;;8.10;86.50;;;;;;5027060;28;19924;-73
2023/04/04 10:25:41;;;;;;;;;;;8.10;86.00;;;;;;5013098;28;19921;-73
2023/04/04 10:28:07;;;;;;;;;;;8.20;87.50;;;;;;5025622;28;20017;-73
2023/04/04 10:30:38;;;;;;;;;;;8.20;85.10;;;;;;4992991;28;20015;-73
2023/04/04 10:33:11;;;;;;;;;;;8.30;84.50;;;;;;5010366;28;19929;-72
2023/04/04 10:35:38;;;;;;;;;;;8.40;85.00;;;;;;5009575;28;19928;-72
2023/04/04 10:38:05;;;;;;;;;;;8.40;84.40;;;;;;5011088;28;19959;-72
2023/04/04 10:40:34;;;;;;;;;;;8.50;83.50;;;;;;4993393;28;20331;-72
2023/04/04 10:43:02;;;;;;;;;;;8.50;83.90;;;;;;5010852;28;19926;-72
2023/04/04 10:45:29;;;;;;;;;;;8.70;80.10;;;;;;5014765;28;19967;-74
2023/04/04 10:47:55;;;;;;;;;;;8.90;83.70;;;;;;5078471;28;19925;-80
2023/04/04 10:50:21;;;;;;;;;;;9.00;81.10;;;;;;4999737;28;19925;-77
2023/04/04 10:52:47;;;;;;;;;;;9.20;80.80;;;;;;5012130;28;19978;-72
2023/04/04 10:55:13;;;;;;;;;;;9.30;79.70;;;;;;5029904;28;19933;-74
2023/04/04 10:57:40;;;;;;;;;;;9.50;81.00;;;;;;5029859;28;20101;-74
2023/04/04 11:00:08;;;;;;;;;;;9.60;78.50;;;;;;5012369;28;19921;-74
2023/04/04 11:02:58;;;;;;;;;;;9.70;77.40;;;;;;5028670;28;20406;-75
2023/04/04 11:05:24;;;;;;;;;;;9.80;76.50;;;;;;5008780;28;20361;-73
2023/04/04 11:07:56;;;;;;;;;;;9.90;78.10;;;;;;5010495;28;20013;-74
2023/04/04 11:10:26;;;;;;;;;;;10.00;77.10;;;;;;4997574;28;20442;-74
2023/04/04 11:12:57;;;;;;;;;;;10.10;74.50;;;;;;5009707;28;19935;-74
2023/04/04 11:15:26;;;;;;;;;;;10.20;72.50;;;;;;5017651;28;19982;-74
2023/04/04 11:17:55;;;;;;;;;;;10.30;69.90;;;;;;5009036;28;19926;-75
2023/04/04 11:20:25;;;;;;;;;;;10.50;70.50;;;;;;5008410;28;20680;-74
2023/04/04 11:23:02;;;;;;;;;;;10.60;68.80;;;;;;4997657;28;20435;-74
2023/04/04 11:25:29;;;;;;;;;;;10.80;69.80;;;;;;5009570;28;19932;-70
2023/04/04 11:27:57;;;;;;;;;;;10.90;68.00;;;;;;5009828;28;19929;-74
2023/04/04 11:30:24;;;;;;;;;;;11.00;71.90;;;;;;5014473;28;19935;-71
2023/04/04 11:32:49;;;;;;;;;;;11.20;65.60;;;;;;5008862;28;19932;-74
2023/04/04 11:35:15;;;;;;;;;;;11.40;65.70;;;;;;5009047;28;19933;-75
2023/04/04 11:37:51;;;;;;;;;;;11.70;64.70;;;;;;4989705;28;19932;-74
2023/04/04 11:40:17;;;;;;;;;;;12.10;63.30;;;;;;4988409;28;19921;-74
2023/04/04 11:42:43;;;;;;;;;;;12.40;65.60;;;;;;4992156;28;20007;-74
2023/04/04 11:45:18;;;;;;;;;;;12.70;66.00;;;;;;4974332;28;20320;-75
2023/04/04 11:47:47;;;;;;;;;;;13.00;62.50;;;;;;5008375;28;19925;-74
2023/04/04 11:50:13;;;;;;;;;;;13.10;58.50;;;;;;4991690;28;19925;-75
2023/04/04 11:52:40;;;;;;;;;;;13.30;62.80;;;;;;5009127;28;19975;-75
2023/04/04 11:55:16;;;;;;;;;;;13.50;61.50;;;;;;5009843;28;19921;-74
2023/04/04 11:57:42;;;;;;;;;;;13.60;61.10;;;;;;5008782;28;20050;-74
2023/04/04 12:00:08;;;;;;;;;;;13.80;58.70;;;;;;5007170;28;19978;-74
2023/04/04 12:02:34;;;;;;;;;;;14.00;62.00;;;;;;5014547;28;20591;-73
2023/04/04 12:04:59;;;;;;;;;;;14.30;60.60;;;;;;5008737;28;19921;-73
2023/04/04 12:07:25;;;;;;;;;;;14.50;60.90;;;;;;5019882;28;19929;-79
2023/04/04 12:09:51;;;;;;;;;;;14.60;56.60;;;;;;5010648;28;20350;-76
2023/04/04 12:12:17;;;;;;;;;;;14.70;58.10;;;;;;4991622;28;19963;-74
2023/04/04 12:14:43;;;;;;;;;;;14.90;56.70;;;;;;5008973;28;20712;-79
2023/04/04 12:17:08;;;;;;;;;;;15.10;53.10;;;;;;5008370;28;19921;-76
2023/04/04 12:19:38;;;;;;;;;;;15.40;55.10;;;;;;5023097;28;19925;-77
2023/04/04 12:22:04;;;;;;;;;;;15.60;55.40;;;;;;4991416;28;19921;-76
2023/04/04 12:24:30;;;;;;;;;;;15.90;55.30;;;;;;4991576;28;19928;-76
2023/04/04 12:26:57;;;;;;;;;;;16.10;57.30;;;;;;4992353;28;19925;-75
2023/04/04 12:29:24;;;;;;;;;;;16.20;54.60;;;;;;5003662;28;20431;-77
2023/04/04 12:31:51;;;;;;;;;;;16.20;57.50;;;;;;4991096;28;19929;-76
2023/04/04 12:34:16;;;;;;;;;;;16.20;56.30;;;;;;5024260;28;19921;-75
2023/04/04 12:36:42;;;;;;;;;;;16.10;51.60;;;;;;4990518;28;20501;-77
2023/04/04 12:39:10;;;;;;;;;;;16.20;53.00;;;;;;4991651;28;20282;-75
2023/04/04 12:41:46;;;;;;;;;;;16.30;55.20;;;;;;5008427;28;20397;-75
2023/04/04 12:44:24;;;;;;;;;;;16.50;54.90;;;;;;4992082;28;19922;-76
2023/04/04 12:46:49;;;;;;;;;;;16.40;55.50;;;;;;5008032;28;19926;-75
2023/04/04 12:49:21;;;;;;;;;;;16.20;52.80;;;;;;5024119;28;19925;-75
2023/04/04 12:51:46;;;;;;;;;;;16.00;53.70;;;;;;4990291;28;19997;-75
2023/04/04 12:54:24;;;;;;;;;;;16.10;55.10;;;;;;5024801;28;20389;-76
2023/04/04 12:56:53;;;;;;;;;;;16.40;56.80;;;;;;4991248;28;19978;-76
2023/04/04 12:59:21;;;;;;;;;;;16.80;52.90;;;;;;5028058;28;20366;-76
2023/04/04 13:01:47;;;;;;;;;;;17.00;52.00;;;;;;5012790;28;20032;-75
2023/04/04 13:04:16;;;;;;;;;;;17.20;56.30;;;;;;4991123;28;20019;-75
2023/04/04 13:06:46;;;;;;;;;;;17.30;53.70;;;;;;4992553;28;19925;-75
2023/04/04 13:09:16;;;;;;;;;;;17.30;52.30;;;;;;5044204;28;19987;-75
2023/04/04 13:11:54;;;;;;;;;;;17.30;50.90;;;;;;5027610;28;19925;-76
2023/04/04 13:14:20;;;;;;;;;;;17.40;50.00;;;;;;5020950;28;19926;-77
2023/04/04 13:16:59;;;;;;;;;;;17.30;44.90;;;;;;4995577;28;19932;-76
2023/04/04 13:19:25;;;;;;;;;;;17.40;43.10;;;;;;5000013;28;20339;-77
2023/04/04 13:21:50;;;;;;;;;;;17.80;50.90;;;;;;5013245;28;19921;-77
2023/04/04 13:24:16;;;;;;;;;;;18.10;48.10;;;;;;4989016;28;20286;-76
2023/04/04 13:26:41;;;;;;;;;;;18.60;48.40;;;;;;5005469;28;20036;-75
2023/04/04 13:29:07;;;;;;;;;;;19.30;47.10;;;;;;5006087;28;19922;-74
2023/04/04 13:31:33;;;;;;;;;;;19.90;46.80;;;;;;5005787;28;19937;-77
2023/04/04 13:33:58;;;;;;;;;;;20.20;46.50;;;;;;5009812;28;19928;-72
2023/04/04 13:36:24;;;;;;;;;;;20.50;49.40;;;;;;5019123;28;19925;-74
2023/04/04 13:38:50;;;;;;;;;;;20.70;46.90;;;;;;5008701;28;19964;-76
2023/04/04 13:41:16;;;;;;;;;;;21.10;48.40;;;;;;5011252;28;19979;-75
2023/04/04 13:43:41;;;;;;;;;;;21.70;43.60;;;;;;5007260;28;19932;-75
2023/04/04 13:46:07;;;;;;;;;;;22.50;45.00;;;;;;5006815;28;19932;-76
2023/04/04 13:48:32;;;;;;;;;;;23.40;42.50;;;;;;5020443;28;20302;-75
2023/04/04 13:50:58;;;;;;;;;;;23.70;41.50;;;;;;5006184;28;19921;-76
2023/04/04 13:53:23;;;;;;;;;;;23.40;41.90;;;;;;5006848;28;20023;-75
2023/04/04 13:55:50;;;;;;;;;;;22.90;41.50;;;;;;5024811;28;20292;-75
2023/04/04 13:58:18;;;;;;;;;;;22.40;34.30;;;;;;5019991;28;20305;-85
2023/04/04 14:00:45;;;;;;;;;;;22.20;33.80;;;;;;4993716;28;19968;-83
2023/04/04 14:03:11;;;;;;;;;;;22.00;36.40;;;;;;5024668;28;20416;-83
2023/04/04 14:05:37;;;;;;;;;;;21.80;41.60;;;;;;5004756;28;19965;-84
2023/04/04 14:08:02;;;;;;;;;;;21.70;38.60;;;;;;5006340;28;20565;-83
2023/04/04 14:10:28;;;;;;;;;;;21.60;44.80;;;;;;4972597;28;19952;-82
2023/04/04 14:12:53;;;;;;;;;;;21.00;44.20;;;;;;5021244;28;19921;-81
2023/04/04 14:15:19;;;;;;;;;;;20.60;38.60;;;;;;4988558;28;19955;-84
2023/04/04 14:17:45;;;;;;;;;;;21.10;41.60;;;;;;4988773;28;19925;-72
2023/04/04 14:20:10;;;;;;;;;;;21.60;43.20;;;;;;5018176;28;19926;-72
2023/04/04 14:22:36;;;;;;;;;;;21.70;40.90;;;;;;5005517;28;19937;-72